Terminal Aerodrome Forecast
Issued by NWS

Home | Current Version | Previous Version | Text Only | Print | Product List | Glossary On
Versions: 1 2 3 4 5 6 7 8 9 10 11 12 13 14 15 16
892
FTUS44 KCRP 031743
TAFALI
TAF
KALI 031743Z 0318/0418 04010KT 6SM -RA BR BKN006 OVC015
      TEMPO 0318/0320 4SM SHRA BR BKN004 OVC015
     FM032000 03007KT 6SM -SHRA BR BKN007 OVC015
     FM040800 03012KT P6SM -RA BKN005 OVC015=

USA.gov is the U.S. government's official web portal to all federal, state and local government web resources and services.